Time;durP1;ratioP1;P1;durP2;ratioP2;P2;SDS_P1;SDS_P2;PMS_P1;PMS_P2;Temp;Humidity;BMP_temperature;BMP_pressure;BME280_temperature;BME280_humidity;BME280_pressure;Samples;Min_cycle;Max_cycle;Signal;HPM_P1;HPM_P2
2021/08/24 00:01:41;;;;;;;4.53;4.17;;;;;;;18.19;53.45;100624.84;1677761;83;21110;-69
2021/08/24 00:04:09;;;;;;;9.28;6.53;;;;;;;18.19;52.87;100616.75;1716052;82;21068;-69
2021/08/24 00:06:36;;;;;;;7.30;6.60;;;;;;;18.19;54.68;100614.05;1709581;82;21032;-69
2021/08/24 00:09:05;;;;;;;6.83;6.25;;;;;;;18.15;54.75;100617.73;1709182;82;21024;-68
2021/08/24 00:11:35;;;;;;;5.37;4.97;;;;;;;18.16;53.49;100611.80;1695064;82;21026;-69
2021/08/24 00:14:05;;;;;;;5.97;5.47;;;;;;;18.15;52.83;100611.52;1709306;83;21215;-69
2021/08/24 00:16:34;;;;;;;7.08;6.37;;;;;;;18.16;54.67;100615.84;1701155;83;21042;-69
2021/08/24 00:19:01;;;;;;;7.17;6.17;;;;;;;18.09;55.11;100616.78;1702845;83;21130;-69
2021/08/24 00:21:27;;;;;;;6.70;6.00;;;;;;;18.05;55.64;100621.00;1703715;83;21084;-69
2021/08/24 00:23:55;;;;;;;9.45;6.37;;;;;;;18.01;55.92;100619.02;1675997;84;21561;-68
2021/08/24 00:26:21;;;;;;;8.50;5.25;;;;;;;17.94;56.34;100620.45;1670245;84;20984;-69
2021/08/24 00:28:47;;;;;;;6.70;6.00;;;;;;;17.88;56.63;100617.33;1672908;84;21619;-69
2021/08/24 00:31:13;;;;;;;6.85;5.65;;;;;;;17.79;56.31;100611.39;1666786;85;20989;-69
2021/08/24 00:33:39;;;;;;;6.12;5.37;;;;;;;17.75;56.12;100617.49;1670859;85;21528;-69
2021/08/24 00:36:05;;;;;;;6.75;6.15;;;;;;;17.71;56.45;100613.89;1686439;84;20978;-70
2021/08/24 00:38:32;;;;;;;6.87;6.17;;;;;;;17.69;57.09;100609.26;1683744;84;20990;-69
2021/08/24 00:41:03;;;;;;;4.97;4.50;;;;;;;17.65;57.08;100611.27;1685831;84;21018;-69
2021/08/24 00:43:33;;;;;;;8.55;6.42;;;;;;;17.63;56.98;100608.83;1683568;84;21561;-69
2021/08/24 00:46:28;;;;;;;6.10;5.62;;;;;;;17.63;57.00;100607.48;1656615;84;21128;-69
2021/08/24 00:49:04;;;;;;;8.13;6.05;;;;;;;17.62;56.64;100605.02;1660501;84;21074;-68
2021/08/24 00:51:37;;;;;;;7.05;4.67;;;;;;;17.60;57.07;100602.54;1672874;84;21081;-68
2021/08/24 00:54:10;;;;;;;6.87;6.28;;;;;;;17.60;53.97;100601.19;1682533;84;22405;-68
2021/08/24 00:56:43;;;;;;;7.33;6.58;;;;;;;17.68;56.80;100609.48;1701437;81;21038;-69
2021/08/24 00:59:10;;;;;;;7.05;6.25;;;;;;;17.67;57.01;100605.97;1713003;81;20959;-69
2021/08/24 01:01:37;;;;;;;7.15;6.22;;;;;;;17.70;56.98;100608.72;1734256;81;21058;-70
2021/08/24 01:04:04;;;;;;;6.05;5.45;;;;;;;17.75;57.43;100610.22;1735459;81;21043;-68
2021/08/24 01:06:56;;;;;;;8.08;6.10;;;;;;;17.82;57.59;100606.06;1735751;81;21485;-68
2021/08/24 01:09:51;;;;;;;7.55;5.72;;;;;;;17.85;57.67;100604.30;1735826;81;20992;-68
2021/08/24 01:12:44;;;;;;;6.50;5.87;;;;;;;17.82;57.75;100602.86;1731077;81;21495;-68
2021/08/24 01:15:25;;;;;;;6.45;5.90;;;;;;;17.81;57.28;100608.48;1721104;82;21024;-69
2021/08/24 01:18:08;;;;;;;8.33;5.92;;;;;;;17.86;55.55;100601.91;1727228;81;21031;-70
2021/08/24 01:21:15;;;;;;;7.00;6.40;;;;;;;17.93;56.57;100603.95;1735682;81;20979;-69
2021/08/24 01:24:02;;;;;;;6.40;5.80;;;;;;;17.97;54.58;100597.58;1728188;81;21050;-69
2021/08/24 01:26:36;;;;;;;6.08;5.47;;;;;;;18.01;54.02;100598.25;1735677;81;21075;-68
2021/08/24 01:29:42;;;;;;;6.17;5.55;;;;;;;18.08;54.25;100590.88;1736598;81;21113;-68
2021/08/24 01:32:58;;;;;;;5.90;5.40;;;;;;;18.11;53.60;100584.19;1726113;81;21041;-69
2021/08/24 01:35:55;;;;;;;5.73;5.23;;;;;;;18.15;53.64;100586.71;1731468;79;20990;-69
2021/08/24 01:38:26;;;;;;;6.15;5.55;;;;;;;18.16;53.86;100580.27;1735970;81;21581;-69
2021/08/24 01:41:10;;;;;;;6.67;6.05;;;;;;;18.19;54.11;100577.62;1731456;81;20976;-69
2021/08/24 01:44:05;;;;;;;6.67;5.97;;;;;;;18.23;52.95;100578.80;1736287;81;22238;-69
2021/08/24 01:47:14;;;;;;;6.05;5.53;;;;;;;18.27;54.17;100575.92;1728120;81;21031;-69
2021/08/24 01:49:47;;;;;;;6.22;5.55;;;;;;;18.29;53.03;100569.80;1731331;81;21073;-69
2021/08/24 01:52:23;;;;;;;6.22;5.62;;;;;;;18.33;53.82;100573.66;1726139;81;21013;-69
2021/08/24 01:54:59;;;;;;;6.97;6.27;;;;;;;18.36;52.70;100577.22;1715875;82;21159;-69
2021/08/24 01:57:40;;;;;;;7.12;5.70;;;;;;;18.39;52.34;100575.42;1725017;81;21043;-69
2021/08/24 02:00:12;;;;;;;6.33;5.72;;;;;;;18.40;52.31;100575.73;1724578;82;21337;-69
2021/08/24 02:02:46;;;;;;;6.78;5.75;;;;;;;18.38;52.18;100572.41;1732635;82;21553;-69
2021/08/24 02:05:22;;;;;;;7.97;6.55;;;;;;;18.39;52.09;100567.32;1728833;80;21054;-69
2021/08/24 02:07:54;;;;;;;6.15;5.60;;;;;;;18.42;51.92;100570.06;1741659;82;21099;-70
2021/08/24 02:10:23;;;;;;;5.85;5.37;;;;;;;18.44;51.87;100558.00;1724926;82;21350;-69
2021/08/24 02:12:53;;;;;;;6.97;5.75;;;;;;;18.47;51.74;100554.00;1742888;81;21588;-68
2021/08/24 02:15:26;;;;;;;6.83;6.22;;;;;;;18.49;51.79;100547.30;1724223;82;21060;-70
2021/08/24 02:17:53;;;;;;;6.65;5.87;;;;;;;18.52;51.78;100551.42;1706032;83;21054;-68
2021/08/24 02:20:24;;;;;;;8.68;6.47;;;;;;;18.52;51.67;100551.42;1725179;82;20973;-69
2021/08/24 02:22:55;;;;;;;7.92;7.12;;;;;;;18.53;51.66;100550.35;1697238;83;21075;-69
2021/08/24 02:25:30;;;;;;;7.53;6.12;;;;;;;18.54;51.73;100549.84;1724380;82;21033;-69
2021/08/24 02:28:13;;;;;;;6.22;5.62;;;;;;;18.54;51.77;100549.31;1694539;83;21036;-69
2021/08/24 02:30:46;;;;;;;8.95;6.67;;;;;;;18.52;51.90;100549.27;1697482;83;21380;-70
2021/08/24 02:33:14;;;;;;;8.73;6.45;;;;;;;18.42;52.14;100539.88;1694352;83;21129;-70
2021/08/24 02:35:57;;;;;;;7.00;6.33;;;;;;;18.33;52.31;100540.44;1699587;83;21006;-72
2021/08/24 02:38:28;;;;;;;8.60;6.62;;;;;;;18.28;52.74;100546.55;1705608;83;21045;-69
2021/08/24 02:41:19;;;;;;;8.55;6.78;;;;;;;18.21;53.01;100541.26;1720166;82;21129;-71
2021/08/24 02:43:53;;;;;;;8.88;7.08;;;;;;;18.20;53.19;100542.87;1718736;82;20983;-69
2021/08/24 02:46:33;;;;;;;8.85;7.40;;;;;;;18.19;53.51;100536.63;1709473;83;21531;-70
2021/08/24 02:49:07;;;;;;;10.68;7.80;;;;;;;18.18;53.69;100544.44;1728917;82;21145;-70
2021/08/24 02:51:35;;;;;;;7.92;7.12;;;;;;;18.13;53.94;100544.31;1748911;81;21003;-70
2021/08/24 02:54:12;;;;;;;9.88;7.87;;;;;;;18.08;53.85;100548.23;1739102;81;21090;-70
2021/08/24 02:56:41;;;;;;;8.48;7.67;;;;;;;18.08;53.91;100545.53;1717308;81;21646;-70
2021/08/24 02:59:07;;;;;;;12.75;8.23;;;;;;;18.09;54.03;100549.34;1709260;84;20999;-70
2021/08/24 03:01:35;;;;;;;8.20;7.40;;;;;;;18.09;54.06;100543.14;1700813;83;21048;-70
2021/08/24 03:04:04;;;;;;;10.40;7.10;;;;;;;18.09;54.22;100539.09;1706718;82;20998;-70
2021/08/24 03:06:33;;;;;;;10.10;7.47;;;;;;;18.08;54.29;100542.33;1712897;82;20966;-69
2021/08/24 03:11:49;;;;;;;10.13;9.10;;;;;;;18.07;54.28;100542.02;1640709;84;21107;-61
2021/08/24 03:14:24;;;;;;;9.10;8.08;;;;;;;18.08;54.28;100541.48;1641367;86;21060;-61
2021/08/24 03:16:58;;;;;;;10.23;8.30;;;;;;;18.09;54.32;100546.66;1628878;87;21011;-65
2021/08/24 03:19:29;;;;;;;8.63;7.83;;;;;;;18.11;54.44;100542.91;1617319;87;21109;-65
2021/08/24 03:21:59;;;;;;;10.18;8.28;;;;;;;18.12;54.49;100539.98;1631554;87;21143;-65
2021/08/24 03:24:27;;;;;;;13.00;9.10;;;;;;;18.13;54.54;100532.71;1652042;85;21068;-65
2021/08/24 03:26:54;;;;;;;10.38;8.93;;;;;;;18.12;54.68;100529.70;1671513;85;21480;-65
2021/08/24 03:29:22;;;;;;;10.48;9.33;;;;;;;18.08;54.76;100532.89;1650622;85;20962;-64
2021/08/24 03:31:57;;;;;;;12.15;8.90;;;;;;;18.05;54.99;100526.59;1653075;85;20977;-65
2021/08/24 03:34:25;;;;;;;10.53;8.68;;;;;;;18.04;55.18;100527.64;1661920;85;21033;-65
2021/08/24 03:36:52;;;;;;;11.12;8.78;;;;;;;18.01;55.32;100526.78;1664672;85;21653;-66
2021/08/24 03:39:19;;;;;;;11.70;8.60;;;;;;;18.04;55.42;100532.22;1654654;85;21107;-64
2021/08/24 03:41:48;;;;;;;9.35;8.40;;;;;;;18.09;55.41;100529.13;1661245;85;21584;-65
2021/08/24 03:44:15;;;;;;;9.63;8.70;;;;;;;18.15;55.42;100538.69;1638542;87;20974;-66
2021/08/24 03:46:41;;;;;;;9.05;8.13;;;;;;;18.18;55.35;100543.62;1668776;84;21903;-66
2021/08/24 03:49:10;;;;;;;9.83;8.43;;;;;;;18.23;55.36;100541.03;1665050;85;21037;-66
2021/08/24 03:51:36;;;;;;;10.23;9.15;;;;;;;18.34;55.27;100538.86;1664223;85;21597;-66
2021/08/24 03:54:02;;;;;;;9.70;8.10;;;;;;;18.62;54.92;100546.78;1665170;85;21033;-66
2021/08/24 03:56:28;;;;;;;13.35;8.95;;;;;;;18.96;54.09;100549.14;1681969;85;20990;-65
2021/08/24 03:58:55;;;;;;;12.10;8.25;;;;;;;19.19;53.39;100544.23;1684526;84;21031;-66
2021/08/24 04:01:22;;;;;;;10.60;9.20;;;;;;;19.27;52.96;100545.72;1684418;85;21577;-65
2021/08/24 04:03:48;;;;;;;13.22;8.63;;;;;;;19.24;52.96;100545.66;1684262;85;21589;-66
2021/08/24 04:06:15;;;;;;;11.30;9.20;;;;;;;19.23;53.20;100551.30;1685570;84;21069;-67
2021/08/24 04:08:41;;;;;;;9.90;8.75;;;;;;;19.18;53.28;100549.86;1680993;84;21137;-67
2021/08/24 04:11:10;;;;;;;;;;;;;;;19.13;53.35;100549.22;1658897;85;21101;-65
2021/08/24 04:13:37;;;;;;;9.50;8.60;;;;;;;19.09;53.50;100542.66;1636023;86;20171;-66
2021/08/24 04:16:08;;;;;;;12.37;8.53;;;;;;;19.02;53.77;100547.38;1630125;86;21116;-65
2021/08/24 04:18:35;;;;;;;10.38;9.18;;;;;;;18.99;53.93;100554.62;1640381;86;21095;-67
2021/08/24 04:21:01;;;;;;;11.05;9.35;;;;;;;18.94;54.26;100551.27;1615616;86;21101;-66
2021/08/24 04:23:29;;;;;;;10.65;9.40;;;;;;;18.90;54.34;100547.41;1629934;86;21041;-66
2021/08/24 04:25:57;;;;;;;10.82;9.15;;;;;;;18.89;54.57;100554.39;1621729;87;21033;-66
2021/08/24 04:28:23;;;;;;;11.78;10.18;;;;;;;18.88;54.69;100562.22;1623415;86;21012;-65
2021/08/24 04:30:49;;;;;;;12.68;9.50;;;;;;;18.83;54.64;100558.86;1631693;87;21033;-67
2021/08/24 04:33:21;;;;;;;12.93;10.00;;;;;;;18.81;54.81;100561.80;1627709;84;21095;-67
2021/08/24 04:35:43;;;;;;;11.45;9.80;;;;;;;18.77;54.96;100563.30;1635648;86;21070;-66
2021/08/24 04:38:09;;;;;;;12.93;9.75;;;;;;;18.73;55.23;100559.44;1619676;87;21015;-66
2021/08/24 04:40:35;;;;;;;16.07;9.93;;;;;;;18.67;55.41;100561.20;1631948;86;21116;-67
2021/08/24 04:43:01;;;;;;;;;;;;;;;18.60;55.50;100562.39;1615253;88;21036;-66
2021/08/24 04:45:28;;;;;;;11.70;9.90;;;;;;;18.53;55.78;100560.34;1612573;87;20154;-66
2021/08/24 04:47:54;;;;;;;11.25;9.53;;;;;;;18.43;56.06;100567.14;1592534;87;21068;-66
2021/08/24 04:50:20;;;;;;;12.30;8.88;;;;;;;18.44;56.12;100562.05;1597231;88;21151;-66
2021/08/24 04:52:46;;;;;;;9.83;8.93;;;;;;;18.48;56.46;100564.57;1604353;87;21187;-66
2021/08/24 04:55:15;;;;;;;10.63;9.53;;;;;;;18.48;56.24;100550.27;1592185;88;21081;-67
2021/08/24 04:57:41;;;;;;;11.15;9.68;;;;;;;18.51;56.45;100562.45;1659203;85;21506;-67
2021/08/24 05:00:09;;;;;;;10.85;9.73;;;;;;;18.53;56.30;100554.94;1643650;85;21187;-66
2021/08/24 05:02:38;;;;;;;11.00;9.55;;;;;;;18.53;56.31;100556.29;1626024;86;21116;-66
2021/08/24 05:05:05;;;;;;;12.10;10.28;;;;;;;18.58;56.14;100552.36;1594082;88;21101;-67
2021/08/24 05:07:31;;;;;;;10.10;8.95;;;;;;;18.61;56.20;100550.52;1591967;89;21167;-66
2021/08/24 05:09:57;;;;;;;11.08;9.75;;;;;;;18.64;56.25;100552.22;1595978;88;21152;-66
2021/08/24 05:12:24;;;;;;;10.15;9.25;;;;;;;18.70;56.11;100553.69;1595776;88;21041;-66
2021/08/24 05:14:52;;;;;;;11.65;9.83;;;;;;;18.72;56.20;100552.38;1600313;88;21603;-69
2021/08/24 05:17:18;;;;;;;12.40;10.63;;;;;;;18.76;56.04;100554.92;1589364;88;21087;-65
2021/08/24 05:19:44;;;;;;;12.25;9.55;;;;;;;18.84;56.00;100555.12;1608011;88;21051;-67
2021/08/24 05:22:10;;;;;;;11.63;10.00;;;;;;;18.94;55.97;100553.16;1593897;88;21156;-66
2021/08/24 05:24:36;;;;;;;;;;;;;;;19.05;55.83;100546.91;1603216;88;21048;-67
2021/08/24 05:27:05;;;;;;;11.60;9.25;;;;;;;19.15;55.50;100551.14;1632676;86;20500;-67
2021/08/24 05:29:32;;;;;;;10.05;8.95;;;;;;;19.22;55.49;100554.53;1646607;86;21003;-67
2021/08/24 05:31:58;;;;;;;11.33;9.68;;;;;;;19.39;55.15;100550.53;1645280;86;21016;-67
2021/08/24 05:34:25;;;;;;;12.50;10.23;;;;;;;19.58;54.85;100555.74;1626384;86;21003;-68
2021/08/24 05:36:51;;;;;;;;;;;;;;;19.71;54.53;100552.73;1591561;88;21107;-67
2021/08/24 05:39:18;;;;;;;13.40;10.32;;;;;;;19.92;54.10;100552.58;1635555;87;20326;-66
2021/08/24 05:41:46;;;;;;;13.38;10.18;;;;;;;20.11;53.71;100552.34;1637756;86;21629;-66
2021/08/24 05:44:12;;;;;;;13.68;10.53;;;;;;;20.30;53.04;100552.36;1615273;87;21060;-66
2021/08/24 05:46:39;;;;;;;13.68;10.58;;;;;;;20.37;52.76;100555.72;1634372;87;21131;-67
2021/08/24 05:49:09;;;;;;;19.17;10.72;;;;;;;20.44;52.85;100560.97;1647055;87;21378;-67
2021/08/24 05:51:35;;;;;;;11.95;10.13;;;;;;;20.49;52.52;100558.31;1638829;86;21164;-67
2021/08/24 05:54:02;;;;;;;10.60;9.60;;;;;;;20.55;52.80;100546.52;1613889;88;21100;-67
2021/08/24 05:56:29;;;;;;;12.40;10.80;;;;;;;20.68;53.26;100541.82;1622870;87;21144;-67
2021/08/24 05:58:57;;;;;;;11.68;9.35;;;;;;;20.85;52.24;100545.31;1622132;87;21172;-67
2021/08/24 06:01:30;;;;;;;13.20;10.00;;;;;;;21.07;52.07;100548.55;1600149;88;21091;-69
2021/08/24 06:03:59;;;;;;;17.70;10.65;;;;;;;21.38;51.50;100538.87;1630777;86;21074;-66
2021/08/24 06:06:35;;;;;;;13.98;10.72;;;;;;;21.65;50.51;100543.50;1616543;86;20998;-66
2021/08/24 06:09:07;;;;;;;15.88;10.10;;;;;;;21.82;50.19;100544.19;1621040;87;21050;-66
2021/08/24 06:11:42;;;;;;;11.22;10.00;;;;;;;22.02;49.73;100534.58;1619078;86;21147;-67
2021/08/24 06:14:09;;;;;;;14.83;11.25;;;;;;;22.25;48.48;100536.12;1621240;86;21028;-67
2021/08/24 06:16:38;;;;;;;10.63;9.53;;;;;;;22.35;48.15;100531.58;1638023;86;21109;-73
2021/08/24 06:19:05;;;;;;;11.57;10.53;;;;;;;22.45;48.21;100534.92;1570002;90;21030;-67
2021/08/24 06:21:33;;;;;;;12.68;9.00;;;;;;;22.67;47.78;100540.73;1627102;86;21079;-66
2021/08/24 06:24:02;;;;;;;10.40;9.20;;;;;;;22.86;46.93;100538.37;1637921;86;21327;-66
2021/08/24 06:26:28;;;;;;;11.95;8.73;;;;;;;23.05;47.22;100538.75;1630716;85;21568;-67
2021/08/24 06:28:54;;;;;;;11.50;8.85;;;;;;;23.25;47.06;100535.28;1632813;86;21561;-67
2021/08/24 06:31:26;;;;;;;9.15;7.78;;;;;;;23.43;45.02;100538.02;1631025;86;21631;-69
2021/08/24 06:33:54;;;;;;;11.65;7.30;;;;;;;23.33;43.36;100538.27;1628052;86;21500;-68
2021/08/24 06:36:22;;;;;;;14.68;7.65;;;;;;;23.22;44.13;100537.98;1645684;86;21521;-68
2021/08/24 06:38:49;;;;;;;8.48;7.67;;;;;;;23.23;44.17;100534.73;1634455;85;21069;-69
2021/08/24 06:41:17;;;;;;;8.63;7.42;;;;;;;23.29;44.24;100536.38;1604267;87;21071;-68
2021/08/24 06:43:45;;;;;;;8.88;7.97;;;;;;;23.44;44.13;100535.05;1606165;87;21151;-68
2021/08/24 06:46:11;;;;;;;9.73;8.23;;;;;;;23.67;42.62;100529.62;1564398;90;21156;-68
2021/08/24 06:48:38;;;;;;;10.78;7.60;;;;;;;23.94;42.28;100525.03;1583531;89;21123;-69
2021/08/24 06:51:04;;;;;;;10.23;7.62;;;;;;;24.22;42.22;100522.28;1572406;89;21131;-67
2021/08/24 06:53:30;;;;;;;14.30;7.15;;;;;;;24.45;41.07;100527.70;1576836;89;21128;-68
2021/08/24 06:55:56;;;;;;;9.03;6.75;;;;;;;24.57;41.26;100526.86;1584262;89;21653;-68
2021/08/24 06:58:23;;;;;;;8.95;6.72;;;;;;;24.79;40.17;100522.95;1593081;88;21052;-68
2021/08/24 07:00:49;;;;;;;7.78;7.08;;;;;;;24.93;40.05;100526.72;1583559;88;21163;-68
2021/08/24 07:03:16;;;;;;;9.30;7.30;;;;;;;25.08;39.74;100524.47;1594343;88;21038;-65
2021/08/24 07:05:47;;;;;;;8.55;7.65;;;;;;;25.25;39.63;100524.94;1586135;88;22260;-65
2021/08/24 07:08:17;;;;;;;10.05;5.87;;;;;;;25.41;38.62;100521.59;1589668;88;21113;-66
2021/08/24 07:10:47;;;;;;;7.85;6.50;;;;;;;25.33;38.53;100520.80;1573482;90;21131;-66
2021/08/24 07:13:12;;;;;;;9.13;7.03;;;;;;;25.25;39.02;100520.05;1566926;90;21182;-66
2021/08/24 07:15:40;;;;;;;11.70;6.55;;;;;;;25.13;39.58;100521.73;1607669;87;21068;-65
2021/08/24 07:18:08;;;;;;;8.60;6.45;;;;;;;25.06;39.55;100517.93;1590216;88;21114;-66
2021/08/24 07:20:34;;;;;;;13.68;6.10;;;;;;;25.03;39.76;100515.78;1585627;88;21032;-66
2021/08/24 07:23:04;;;;;;;7.53;6.70;;;;;;;25.13;39.33;100519.52;1636314;86;21023;-67
2021/08/24 07:25:37;;;;;;;8.48;6.78;;;;;;;25.19;39.12;100511.60;1638684;86;21090;-66
2021/08/24 07:28:00;;;;;;;7.08;6.00;;;;;;;25.11;38.67;100513.54;1636946;86;21048;-65
2021/08/24 07:30:26;;;;;;;8.73;6.30;;;;;;;24.90;39.13;100521.02;1636496;86;21048;-66
2021/08/24 07:32:52;;;;;;;5.92;5.30;;;;;;;24.79;39.34;100508.80;1633742;86;21024;-67
2021/08/24 07:35:19;;;;;;;5.65;5.15;;;;;;;24.77;38.97;100515.61;1643436;86;21075;-66
2021/08/24 07:37:45;;;;;;;6.90;4.90;;;;;;;24.68;38.79;100504.48;1645900;86;21063;-63
2021/08/24 07:40:13;;;;;;;6.72;5.67;;;;;;;24.65;39.06;100510.48;1636928;86;21488;-65
2021/08/24 07:42:41;;;;;;;6.97;5.35;;;;;;;24.69;39.44;100497.92;1628827;86;21063;-66
2021/08/24 07:45:10;;;;;;;6.42;5.83;;;;;;;24.77;38.77;100500.62;1636539;86;21106;-68
2021/08/24 07:47:36;;;;;;;8.53;5.92;;;;;;;24.85;39.18;100505.51;1638250;86;21043;-67
2021/08/24 07:50:04;;;;;;;6.80;5.15;;;;;;;24.94;39.21;100498.37;1638899;86;21143;-65
2021/08/24 07:52:31;;;;;;;6.30;5.72;;;;;;;25.06;39.17;100501.56;1635233;86;21082;-66
2021/08/24 07:54:57;;;;;;;8.30;6.72;;;;;;;25.19;39.28;100502.05;1636362;86;21096;-66
2021/08/24 07:57:25;;;;;;;6.80;5.80;;;;;;;25.19;39.68;100503.42;1638834;86;22105;-66
2021/08/24 07:59:54;;;;;;;6.70;6.10;;;;;;;24.92;39.46;100504.66;1646709;86;21147;-66
2021/08/24 08:02:20;;;;;;;7.17;6.25;;;;;;;24.76;39.90;100503.09;1638210;86;21059;-67
2021/08/24 08:04:46;;;;;;;7.75;6.70;;;;;;;24.70;40.35;100490.03;1638186;86;21106;-66
2021/08/24 08:07:15;;;;;;;6.90;6.10;;;;;;;24.67;40.42;100494.11;1641161;86;21064;-66
2021/08/24 08:09:42;;;;;;;8.85;6.40;;;;;;;24.66;40.42;100491.13;1635682;86;21588;-66
2021/08/24 08:12:10;;;;;;;8.63;6.58;;;;;;;24.71;40.23;100490.84;1633564;86;21044;-66
2021/08/24 08:14:37;;;;;;;10.88;6.33;;;;;;;24.82;39.74;100493.23;1642959;86;21055;-66
2021/08/24 08:17:05;;;;;;;7.75;5.60;;;;;;;24.92;40.04;100486.94;1643090;86;21086;-66
2021/08/24 08:19:33;;;;;;;6.55;5.65;;;;;;;25.00;39.26;100492.34;1650003;85;21072;-66
2021/08/24 08:21:59;;;;;;;6.65;5.50;;;;;;;25.03;39.54;100487.67;1648699;85;21595;-68
2021/08/24 08:24:25;;;;;;;6.03;4.87;;;;;;;25.16;39.03;100484.88;1680799;83;21129;-67
2021/08/24 08:26:53;;;;;;;6.62;4.45;;;;;;;25.30;37.98;100483.19;1691277;83;21040;-66
2021/08/24 08:29:20;;;;;;;5.47;4.17;;;;;;;25.38;37.97;100475.76;1685355;84;20966;-68
2021/08/24 08:31:48;;;;;;;6.70;4.28;;;;;;;25.44;37.73;100481.44;1683811;83;21282;-67
2021/08/24 08:34:18;;;;;;;5.80;5.30;;;;;;;25.50;38.24;100485.50;1678033;83;21053;-69
2021/08/24 08:36:48;;;;;;;4.65;4.30;;;;;;;25.51;37.61;100485.78;1700218;83;21102;-67
2021/08/24 08:39:15;;;;;;;5.50;4.83;;;;;;;25.49;37.33;100483.33;1693067;83;21029;-65
2021/08/24 08:42:11;;;;;;;7.20;4.60;;;;;;;25.35;37.36;100483.69;1694476;84;21263;-70
2021/08/24 08:44:45;;;;;;;4.85;4.40;;;;;;;25.32;37.87;100474.73;1689448;84;21622;-70
2021/08/24 08:47:51;;;;;;;5.12;4.45;;;;;;;25.35;37.96;100479.60;1697179;83;21018;-70
2021/08/24 08:50:49;;;;;;;4.22;3.80;;;;;;;25.40;37.54;100480.38;1668425;83;21514;-72
2021/08/24 08:53:27;;;;;;;3.83;3.40;;;;;;;25.38;36.78;100481.77;1695990;83;21023;-69
2021/08/24 08:56:16;;;;;;;6.05;4.28;;;;;;;25.27;37.27;100472.84;1694070;84;21049;-69
2021/08/24 08:59:14;;;;;;;4.85;4.42;;;;;;;25.27;37.40;100474.20;1693616;83;21673;-72
2021/08/24 09:01:59;;;;;;;5.75;5.12;;;;;;;25.24;37.66;100470.66;1656766;83;21138;-71
2021/08/24 09:04:38;;;;;;;4.95;4.12;;;;;;;25.29;37.51;100467.91;1647499;85;21066;-69
2021/08/24 09:07:14;;;;;;;5.28;4.25;;;;;;;25.30;37.31;100465.46;1638398;85;21065;-69
2021/08/24 09:09:39;;;;;;;4.22;3.83;;;;;;;25.39;37.43;100467.02;1647657;85;21137;-68
2021/08/24 09:12:09;;;;;;;4.05;3.75;;;;;;;25.45;36.83;100463.98;1643276;85;21046;-69
2021/08/24 09:14:52;;;;;;;5.58;4.50;;;;;;;25.53;36.58;100461.74;1646394;85;21067;-68
2021/08/24 09:17:35;;;;;;;4.95;4.30;;;;;;;25.58;36.81;100452.12;1632595;86;21169;-69
2021/08/24 09:20:31;;;;;;;3.15;2.95;;;;;;;25.65;36.15;100470.36;1659004;86;21595;-71
2021/08/24 09:23:01;;;;;;;4.90;2.52;;;;;;;25.62;35.84;100457.30;1635051;85;21037;-70
2021/08/24 09:25:50;;;;;;;3.65;2.42;;;;;;;25.66;35.77;100447.44;1671370;85;22140;-69
2021/08/24 09:28:24;;;;;;;2.17;2.05;;;;;;;25.78;35.75;100439.66;1677013;85;21671;-68
2021/08/24 09:30:52;;;;;;;4.75;2.60;;;;;;;25.94;35.27;100436.84;1673907;84;21186;-70
2021/08/24 09:33:19;;;;;;;4.28;2.98;;;;;;;26.09;35.83;100442.66;1672980;84;21525;-68
2021/08/24 09:35:47;;;;;;;4.72;2.65;;;;;;;26.27;35.61;100446.58;1674284;85;21049;-69
2021/08/24 09:38:22;;;;;;;2.20;2.08;;;;;;;26.41;34.80;100446.14;1676182;85;21112;-68
2021/08/24 09:40:54;;;;;;;3.62;2.58;;;;;;;26.49;34.83;100432.38;1678536;85;21042;-67
2021/08/24 09:43:34;;;;;;;2.83;2.58;;;;;;;26.53;34.18;100430.13;1676587;85;21599;-69
2021/08/24 09:46:20;;;;;;;6.67;2.35;;;;;;;26.59;34.01;100434.97;1674632;84;21010;-69
2021/08/24 09:49:08;;;;;;;2.87;1.55;;;;;;;26.61;32.79;100428.13;1664109;85;21064;-71
2021/08/24 09:51:45;;;;;;;1.32;1.22;;;;;;;26.57;31.95;100431.16;1667435;84;21535;-68
2021/08/24 09:54:31;;;;;;;2.00;1.40;;;;;;;26.49;31.67;100424.98;1672143;85;21022;-68
2021/08/24 09:57:13;;;;;;;1.62;1.52;;;;;;;26.46;31.76;100422.03;1659036;85;21212;-69
2021/08/24 10:00:06;;;;;;;1.57;1.30;;;;;;;26.46;31.93;100421.47;1670241;85;21093;-68
2021/08/24 10:02:44;;;;;;;1.98;1.20;;;;;;;26.47;32.05;100423.11;1666533;85;21602;-67
2021/08/24 10:08:36;;;;;;;3.27;1.57;;;;;;;26.39;32.12;100414.17;1864406;74;22950;-68
2021/08/24 10:11:13;;;;;;;1.50;0.80;;;;;;;26.30;32.12;100410.48;1834204;76;21102;-69
2021/08/24 10:13:43;;;;;;;1.77;1.45;;;;;;;26.28;32.22;100403.14;1831131;76;21030;-70
2021/08/24 10:16:26;;;;;;;2.70;1.25;;;;;;;26.26;32.10;100415.72;1853542;76;20976;-69
2021/08/24 10:19:24;;;;;;;1.12;1.12;;;;;;;26.25;31.65;100397.69;1861950;76;21063;-69
2021/08/24 10:21:59;;;;;;;4.50;1.30;;;;;;;26.29;31.72;100415.67;1862395;76;20987;-70
2021/08/24 10:24:56;;;;;;;0.88;0.88;;;;;;;26.33;31.24;100409.32;1788475;78;20966;-70
2021/08/24 10:27:33;;;;;;;3.33;0.93;;;;;;;26.32;31.62;100398.71;1783461;79;21042;-69
2021/08/24 10:30:05;;;;;;;2.45;1.12;;;;;;;26.38;31.73;100390.14;1768426;80;21042;-68
2021/08/24 10:32:46;;;;;;;0.93;0.93;;;;;;;26.47;31.78;100398.51;1786270;79;21050;-70
2021/08/24 10:35:18;;;;;;;4.60;0.93;;;;;;;26.56;31.55;100401.38;1779654;79;21068;-68
2021/08/24 10:37:48;;;;;;;7.70;1.37;;;;;;;26.59;31.08;100399.44;1794292;79;21149;-69
2021/08/24 10:40:25;;;;;;;2.02;1.52;;;;;;;26.58;31.05;100397.27;1794557;79;21523;-70
2021/08/24 10:43:20;;;;;;;1.20;0.82;;;;;;;26.55;31.13;100391.57;1795721;79;21074;-69
2021/08/24 10:46:15;;;;;;;2.77;1.00;;;;;;;26.50;31.14;100397.91;1791919;79;21003;-69
2021/08/24 10:48:43;;;;;;;2.77;1.05;;;;;;;26.51;31.19;100382.34;1779742;79;21010;-69
2021/08/24 10:51:28;;;;;;;5.20;0.98;;;;;;;26.60;30.95;100375.14;1785460;79;21571;-69
2021/08/24 10:54:15;;;;;;;2.95;0.78;;;;;;;26.71;30.69;100383.45;1781496;79;21032;-68
2021/08/24 10:57:12;;;;;;;2.35;0.80;;;;;;;26.82;30.33;100376.45;1796558;78;21072;-70
2021/08/24 10:59:57;;;;;;;0.55;0.50;;;;;;;26.87;30.48;100368.99;1819975;79;21093;-71
2021/08/24 11:03:07;;;;;;;1.40;0.80;;;;;;;26.93;30.29;100361.52;1781424;79;21008;-70
2021/08/24 11:05:45;;;;;;;1.00;0.88;;;;;;;26.81;29.89;100375.66;1773885;79;21052;-69
2021/08/24 11:08:35;;;;;;;3.42;0.70;;;;;;;26.65;30.32;100368.77;1779794;79;21010;-70
2021/08/24 11:11:32;;;;;;;1.12;0.78;;;;;;;26.64;30.63;100358.97;1782517;79;21092;-70
2021/08/24 11:14:19;;;;;;;3.45;0.68;;;;;;;26.68;30.47;100358.63;1805993;78;21035;-71
2021/08/24 11:17:21;;;;;;;;;;;;;;;26.70;30.56;100348.20;1804689;78;21076;-72
2021/08/24 11:20:14;;;;;;;1.07;0.70;;;;;;;26.67;30.40;100372.02;1793545;78;20198;-68
2021/08/24 11:23:03;;;;;;;2.98;1.15;;;;;;;26.63;30.28;100355.39;1792628;78;21079;-69
2021/08/24 11:25:44;;;;;;;3.20;0.95;;;;;;;26.70;30.58;100363.24;1770671;80;21066;-69
2021/08/24 11:28:28;;;;;;;3.37;1.20;;;;;;;26.72;30.30;100352.25;1775202;79;21693;-69
2021/08/24 11:31:11;;;;;;;1.47;0.55;;;;;;;26.73;30.22;100346.23;1772666;80;21120;-70
2021/08/24 11:33:43;;;;;;;2.70;0.70;;;;;;;26.75;30.23;100347.58;1785320;78;21780;-69
2021/08/24 11:36:32;;;;;;;2.85;0.90;;;;;;;26.72;30.31;100366.49;1797427;78;21473;-69
2021/08/24 11:39:05;;;;;;;5.72;1.65;;;;;;;26.71;30.39;100334.78;1793964;78;21095;-69
2021/08/24 11:41:35;;;;;;;3.25;0.75;;;;;;;26.74;30.06;100343.77;1798097;78;21003;-70
2021/08/24 11:44:12;;;;;;;1.87;0.78;;;;;;;26.76;29.96;100342.91;1797112;78;21019;-70
2021/08/24 11:46:47;;;;;;;2.75;0.93;;;;;;;26.79;29.73;100332.76;1798696;78;21540;-69
2021/08/24 11:49:27;;;;;;;0.80;0.50;;;;;;;26.82;30.09;100329.41;1798750;78;20955;-69
2021/08/24 11:52:05;;;;;;;1.30;0.80;;;;;;;26.87;29.75;100334.81;1798824;78;21003;-71
2021/08/24 11:55:00;;;;;;;4.33;1.35;;;;;;;26.81;30.03;100334.64;1798245;78;20963;-70
2021/08/24 11:58:00;;;;;;;6.33;1.40;;;;;;;26.84;30.04;100321.72;1749360;79;21285;-70
2021/08/24 12:00:26;;;;;;;3.15;1.05;;;;;;;26.85;29.79;100304.78;1730579;80;21028;-71